Terminal Aerodrome Forecast
Issued by NWS

Home | Current Version | Previous Version | Text Only | Print | Product List | Glossary On
Versions: 1 2 3 4 5 6 7 8 9 10 11 12 13 14 15 16 17 18 19 20 21 22 23 24 25 26 27 28 29 30
000
FTUS42 KGSP 031627 AAD
TAFAND
TAF AMD
KAND 031627Z 0316/0412 23011KT P6SM VCSH SCT012 OVC060
      TEMPO 0316/0318 BKN012 OVC060
     FM031800 24012G21KT P6SM -SHRA VCTS BKN040CB
     FM040000 25012G20KT P6SM BKN060
     FM040200 25009KT P6SM BKN110
     FM041000 23007KT P6SM BKN020=

USA.gov is the U.S. government's official web portal to all federal, state and local government web resources and services.